sensor_id;sensor_type;location;lat;lon;timestamp;pressure;altitude;pressure_sealevel;temperature;humidity
5814;BME280;2933;52.302;8.134;2023-11-22T00:03:48;78690.34;;;-148.04;100.00
5814;BME280;2933;52.302;8.134;2023-11-22T00:08:51;78706.25;;;-148.04;100.00
5814;BME280;2933;52.302;8.134;2023-11-22T00:13:53;78724.16;;;-148.04;100.00
5814;BME280;2933;52.302;8.134;2023-11-22T00:18:56;78734.09;;;-148.04;100.00
5814;BME280;2933;52.302;8.134;2023-11-22T00:23:59;78732.09;;;-148.04;100.00
5814;BME280;2933;52.302;8.134;2023-11-22T00:29:00;78750.00;;;-148.04;100.00
5814;BME280;2933;52.302;8.134;2023-11-22T00:34:02;78757.97;;;-148.04;100.00
5814;BME280;2933;52.302;8.134;2023-11-22T00:39:05;78740.06;;;-148.04;100.00
5814;BME280;2933;52.302;8.134;2023-11-22T00:44:06;78738.06;;;-148.04;100.00
5814;BME280;2933;52.302;8.134;2023-11-22T00:49:08;78754.00;;;-148.04;100.00
5814;BME280;2933;52.302;8.134;2023-11-22T00:54:11;78773.88;;;-148.04;100.00
5814;BME280;2933;52.302;8.134;2023-11-22T00:59:12;78795.75;;;-148.04;100.00
5814;BME280;2933;52.302;8.134;2023-11-22T01:04:14;78815.66;;;-148.04;100.00
5814;BME280;2933;52.302;8.134;2023-11-22T01:09:17;78829.56;;;-148.04;100.00
5814;BME280;2933;52.302;8.134;2023-11-22T01:14:19;78827.59;;;-148.04;100.00
5814;BME280;2933;52.302;8.134;2023-11-22T01:19:22;78827.59;;;-148.04;100.00
5814;BME280;2933;52.302;8.134;2023-11-22T01:24:25;78845.50;;;-148.04;100.00
5814;BME280;2933;52.302;8.134;2023-11-22T01:29:28;78843.50;;;-148.04;100.00
5814;BME280;2933;52.302;8.134;2023-11-22T01:34:30;78851.44;;;-148.04;100.00
5814;BME280;2933;52.302;8.134;2023-11-22T01:39:33;78851.44;;;-148.04;100.00
5814;BME280;2933;52.302;8.134;2023-11-22T01:44:34;78859.41;;;-148.04;100.00
5814;BME280;2933;52.302;8.134;2023-11-22T01:49:37;78903.16;;;-148.04;100.00
5814;BME280;2933;52.302;8.134;2023-11-22T01:54:40;78942.94;;;-148.04;100.00
5814;BME280;2933;52.302;8.134;2023-11-22T01:59:43;78919.09;;;-148.04;100.00
5814;BME280;2933;52.302;8.134;2023-11-22T02:04:47;78950.91;;;-148.04;100.00
5814;BME280;2933;52.302;8.134;2023-11-22T02:09:50;78929.03;;;-148.04;100.00
5814;BME280;2933;52.302;8.134;2023-11-22T02:14:53;78980.75;;;-148.04;100.00
5814;BME280;2933;52.302;8.134;2023-11-22T02:19:54;78966.81;;;-148.04;100.00
5814;BME280;2933;52.302;8.134;2023-11-22T02:24:57;78964.84;;;-148.04;100.00
5814;BME280;2933;52.302;8.134;2023-11-22T02:30:01;78992.69;;;-148.04;100.00
5814;BME280;2933;52.302;8.134;2023-11-22T02:35:06;78970.81;;;-148.04;100.00
5814;BME280;2933;52.302;8.134;2023-11-22T02:40:16;78978.75;;;-148.04;100.00
5814;BME280;2933;52.302;8.134;2023-11-22T02:45:20;78988.69;;;-148.04;100.00
5814;BME280;2933;52.302;8.134;2023-11-22T02:50:23;78990.69;;;-148.04;100.00
5814;BME280;2933;52.302;8.134;2023-11-22T02:55:27;79000.63;;;-148.04;100.00
5814;BME280;2933;52.302;8.134;2023-11-22T03:00:29;79030.47;;;-148.04;100.00
5814;BME280;2933;52.302;8.134;2023-11-22T03:05:30;79056.34;;;-148.04;100.00
5814;BME280;2933;52.302;8.134;2023-11-22T03:10:33;79060.31;;;-148.04;100.00
5814;BME280;2933;52.302;8.134;2023-11-22T03:15:35;79064.28;;;-148.04;100.00
5814;BME280;2933;52.302;8.134;2023-11-22T03:20:37;79084.19;;;-148.04;100.00
5814;BME280;2933;52.302;8.134;2023-11-22T03:25:40;79056.34;;;-148.04;100.00
5814;BME280;2933;52.302;8.134;2023-11-22T03:30:42;79044.41;;;-148.04;100.00
5814;BME280;2933;52.302;8.134;2023-11-22T03:35:44;79068.28;;;-148.04;100.00
5814;BME280;2933;52.302;8.134;2023-11-22T03:40:46;79092.13;;;-148.04;100.00
5814;BME280;2933;52.302;8.134;2023-11-22T03:45:48;79127.94;;;-148.04;100.00
5814;BME280;2933;52.302;8.134;2023-11-22T03:50:50;79133.91;;;-148.04;100.00
5814;BME280;2933;52.302;8.134;2023-11-22T03:55:53;79135.91;;;-148.04;100.00
5814;BME280;2933;52.302;8.134;2023-11-22T04:00:54;79143.84;;;-148.04;100.00
5814;BME280;2933;52.302;8.134;2023-11-22T04:05:58;79151.81;;;-148.04;100.00
5814;BME280;2933;52.302;8.134;2023-11-22T04:11:03;79165.75;;;-148.04;100.00
5814;BME280;2933;52.302;8.134;2023-11-22T04:16:06;79161.75;;;-148.04;100.00
5814;BME280;2933;52.302;8.134;2023-11-22T04:21:09;79143.84;;;-148.04;100.00
5814;BME280;2933;52.302;8.134;2023-11-22T04:26:12;79151.81;;;-148.04;100.00
5814;BME280;2933;52.302;8.134;2023-11-22T04:31:13;79143.84;;;-148.04;100.00
5814;BME280;2933;52.302;8.134;2023-11-22T04:36:15;79151.81;;;-148.04;100.00
5814;BME280;2933;52.302;8.134;2023-11-22T04:41:19;79143.84;;;-148.04;100.00
5814;BME280;2933;52.302;8.134;2023-11-22T04:46:20;79145.84;;;-148.04;100.00
5814;BME280;2933;52.302;8.134;2023-11-22T04:51:22;79179.66;;;-148.04;100.00
5814;BME280;2933;52.302;8.134;2023-11-22T04:56:25;79193.59;;;-148.04;100.00
5814;BME280;2933;52.302;8.134;2023-11-22T05:01:31;79199.56;;;-148.04;100.00
5814;BME280;2933;52.302;8.134;2023-11-22T05:06:33;79199.56;;;-148.04;100.00
5814;BME280;2933;52.302;8.134;2023-11-22T05:11:35;79239.34;;;-148.04;100.00
5814;BME280;2933;52.302;8.134;2023-11-22T05:16:37;79255.25;;;-148.04;100.00
5814;BME280;2933;52.302;8.134;2023-11-22T05:21:39;79277.13;;;-148.04;100.00
5814;BME280;2933;52.302;8.134;2023-11-22T05:26:41;79269.19;;;-148.04;100.00
5814;BME280;2933;52.302;8.134;2023-11-22T05:31:43;79259.25;;;-148.04;100.00
5814;BME280;2933;52.302;8.134;2023-11-22T05:36:44;79271.16;;;-148.04;100.00
5814;BME280;2933;52.302;8.134;2023-11-22T05:41:48;79271.16;;;-148.04;100.00
5814;BME280;2933;52.302;8.134;2023-11-22T05:46:49;79281.13;;;-148.04;100.00
5814;BME280;2933;52.302;8.134;2023-11-22T05:51:51;79306.97;;;-148.04;100.00
5814;BME280;2933;52.302;8.134;2023-11-22T05:56:54;79289.06;;;-148.04;100.00
5814;BME280;2933;52.302;8.134;2023-11-22T06:01:55;79283.09;;;-148.04;100.00
5814;BME280;2933;52.302;8.134;2023-11-22T06:06:57;79308.97;;;-148.04;100.00
5814;BME280;2933;52.302;8.134;2023-11-22T06:12:00;79310.97;;;-148.04;100.00
5814;BME280;2933;52.302;8.134;2023-11-22T06:17:02;79308.97;;;-148.04;100.00
5814;BME280;2933;52.302;8.134;2023-11-22T06:22:04;79322.91;;;-148.04;100.00
5814;BME280;2933;52.302;8.134;2023-11-22T06:27:08;79342.78;;;-148.04;100.00
5814;BME280;2933;52.302;8.134;2023-11-22T06:32:10;79356.72;;;-148.04;100.00
5814;BME280;2933;52.302;8.134;2023-11-22T06:37:11;79366.66;;;-148.04;100.00
5814;BME280;2933;52.302;8.134;2023-11-22T06:42:14;79360.69;;;-148.04;100.00
5814;BME280;2933;52.302;8.134;2023-11-22T06:47:16;79336.81;;;-148.04;100.00
5814;BME280;2933;52.302;8.134;2023-11-22T06:52:18;79318.91;;;-148.04;100.00
5814;BME280;2933;52.302;8.134;2023-11-22T06:57:21;79316.94;;;-148.04;100.00
5814;BME280;2933;52.302;8.134;2023-11-22T07:02:28;79330.84;;;-148.04;100.00
5814;BME280;2933;52.302;8.134;2023-11-22T07:07:30;79344.78;;;-148.04;100.00
5814;BME280;2933;52.302;8.134;2023-11-22T07:12:34;79354.72;;;-148.04;100.00
5814;BME280;2933;52.302;8.134;2023-11-22T07:17:35;79362.69;;;-148.04;100.00
5814;BME280;2933;52.302;8.134;2023-11-22T07:22:37;79350.75;;;-148.04;100.00
5814;BME280;2933;52.302;8.134;2023-11-22T07:27:40;79336.81;;;-148.04;100.00
5814;BME280;2933;52.302;8.134;2023-11-22T07:32:42;79320.91;;;-148.04;100.00
5814;BME280;2933;52.302;8.134;2023-11-22T07:37:44;79318.91;;;-148.04;100.00
5814;BME280;2933;52.302;8.134;2023-11-22T07:42:47;79342.78;;;-148.04;100.00
5814;BME280;2933;52.302;8.134;2023-11-22T07:47:49;79324.88;;;-148.04;100.00
5814;BME280;2933;52.302;8.134;2023-11-22T07:52:53;79312.94;;;-148.04;100.00
5814;BME280;2933;52.302;8.134;2023-11-22T07:57:56;79297.03;;;-148.04;100.00
5814;BME280;2933;52.302;8.134;2023-11-22T08:02:58;79279.13;;;-148.04;100.00
5814;BME280;2933;52.302;8.134;2023-11-22T08:08:02;79277.13;;;-148.04;100.00
5814;BME280;2933;52.302;8.134;2023-11-22T08:13:08;79301.00;;;-148.04;100.00
5814;BME280;2933;52.302;8.134;2023-11-22T08:18:10;79334.84;;;-148.04;100.00
5814;BME280;2933;52.302;8.134;2023-11-22T08:23:11;79336.81;;;-148.04;100.00
5814;BME280;2933;52.302;8.134;2023-11-22T08:28:15;79314.94;;;-148.04;100.00
5814;BME280;2933;52.302;8.134;2023-11-22T08:33:16;79330.84;;;-148.04;100.00
5814;BME280;2933;52.302;8.134;2023-11-22T08:38:18;79342.78;;;-148.04;100.00
5814;BME280;2933;52.302;8.134;2023-11-22T08:43:22;79342.78;;;-148.04;100.00
5814;BME280;2933;52.302;8.134;2023-11-22T08:48:25;79338.81;;;-148.04;100.00
5814;BME280;2933;52.302;8.134;2023-11-22T08:53:27;79326.88;;;-148.04;100.00
5814;BME280;2933;52.302;8.134;2023-11-22T08:58:34;79289.06;;;-148.04;100.00
5814;BME280;2933;52.302;8.134;2023-11-22T09:03:37;79259.25;;;-148.04;100.00
5814;BME280;2933;52.302;8.134;2023-11-22T09:08:39;79249.28;;;-148.04;100.00
5814;BME280;2933;52.302;8.134;2023-11-22T09:13:42;79243.31;;;-148.04;100.00
5814;BME280;2933;52.302;8.134;2023-11-22T09:18:45;79233.38;;;-148.04;100.00
5814;BME280;2933;52.302;8.134;2023-11-22T09:23:47;79231.38;;;-148.04;100.00
5814;BME280;2933;52.302;8.134;2023-11-22T09:28:50;79221.44;;;-148.04;100.00
5814;BME280;2933;52.302;8.134;2023-11-22T09:33:54;79203.53;;;-148.04;100.00
5814;BME280;2933;52.302;8.134;2023-11-22T09:38:57;79181.66;;;-148.04;100.00
5814;BME280;2933;52.302;8.134;2023-11-22T09:44:00;79167.72;;;-148.04;100.00
5814;BME280;2933;52.302;8.134;2023-11-22T09:49:06;79149.81;;;-148.04;100.00
5814;BME280;2933;52.302;8.134;2023-11-22T09:54:10;79153.81;;;-148.04;100.00
5814;BME280;2933;52.302;8.134;2023-11-22T09:59:17;79116.00;;;-148.04;100.00
5814;BME280;2933;52.302;8.134;2023-11-22T10:04:20;79120.00;;;-148.04;100.00
5814;BME280;2933;52.302;8.134;2023-11-22T10:09:21;79102.09;;;-148.04;100.00
5814;BME280;2933;52.302;8.134;2023-11-22T10:14:25;79088.16;;;-148.04;100.00
5814;BME280;2933;52.302;8.134;2023-11-22T10:19:27;79074.25;;;-148.04;100.00
5814;BME280;2933;52.302;8.134;2023-11-22T10:24:30;79060.31;;;-148.04;100.00
5814;BME280;2933;52.302;8.134;2023-11-22T10:29:35;79042.41;;;-148.04;100.00
5814;BME280;2933;52.302;8.134;2023-11-22T10:34:36;79068.28;;;-148.04;100.00
5814;BME280;2933;52.302;8.134;2023-11-22T10:39:38;79066.28;;;-148.04;100.00
5814;BME280;2933;52.302;8.134;2023-11-22T10:44:41;79062.31;;;-148.04;100.00
5814;BME280;2933;52.302;8.134;2023-11-22T10:49:42;79048.38;;;-148.04;100.00
5814;BME280;2933;52.302;8.134;2023-11-22T10:54:49;79040.41;;;-148.04;100.00
5814;BME280;2933;52.302;8.134;2023-11-22T10:59:54;79006.59;;;-148.04;100.00
5814;BME280;2933;52.302;8.134;2023-11-22T11:04:59;78992.69;;;-148.04;100.00
5814;BME280;2933;52.302;8.134;2023-11-22T11:10:08;78968.81;;;-148.04;100.00
5814;BME280;2933;52.302;8.134;2023-11-22T11:15:13;78972.78;;;-148.04;100.00
5814;BME280;2933;52.302;8.134;2023-11-22T11:20:16;78956.88;;;-148.04;100.00
5814;BME280;2933;52.302;8.134;2023-11-22T11:25:20;78933.00;;;-148.04;97.39
5814;BME280;2933;52.302;8.134;2023-11-22T11:30:41;78917.09;;;-148.04;98.65
5814;BME280;2933;52.302;8.134;2023-11-22T11:35:46;78909.13;;;-148.04;96.84
5814;BME280;2933;52.302;8.134;2023-11-22T11:40:49;78895.22;;;-148.04;93.17
5814;BME280;2933;52.302;8.134;2023-11-22T11:45:53;78865.38;;;-148.04;85.36
5814;BME280;2933;52.302;8.134;2023-11-22T11:50:55;78865.38;;;-148.04;83.56
5814;BME280;2933;52.302;8.134;2023-11-22T11:55:57;78831.56;;;-148.04;81.05
5814;BME280;2933;52.302;8.134;2023-11-22T12:01:00;78801.72;;;-148.04;82.39
5814;BME280;2933;52.302;8.134;2023-11-22T12:06:03;78797.75;;;-148.04;75.29
5814;BME280;2933;52.302;8.134;2023-11-22T12:11:05;78781.84;;;-148.04;78.84
5814;BME280;2933;52.302;8.134;2023-11-22T12:16:09;78783.81;;;-148.04;74.46
5814;BME280;2933;52.302;8.134;2023-11-22T12:21:15;78750.00;;;-148.04;73.11
5814;BME280;2933;52.302;8.134;2023-11-22T12:26:20;78736.09;;;-148.04;68.07
5814;BME280;2933;52.302;8.134;2023-11-22T12:31:23;78734.09;;;-148.04;68.54
5814;BME280;2933;52.302;8.134;2023-11-22T12:36:25;78726.13;;;-148.04;75.00
5814;BME280;2933;52.302;8.134;2023-11-22T12:41:27;78708.25;;;-148.04;68.62
5814;BME280;2933;52.302;8.134;2023-11-22T12:46:44;78706.25;;;-148.04;62.15
5814;BME280;2933;52.302;8.134;2023-11-22T12:51:47;78708.25;;;-148.04;62.91
5814;BME280;2933;52.302;8.134;2023-11-22T12:56:49;78722.16;;;-148.04;64.92
5814;BME280;2933;52.302;8.134;2023-11-22T13:01:55;78706.25;;;-148.04;60.92
5814;BME280;2933;52.302;8.134;2023-11-22T13:06:58;78718.19;;;-148.04;59.68
5814;BME280;2933;52.302;8.134;2023-11-22T13:12:00;78702.28;;;-148.04;64.23
5814;BME280;2933;52.302;8.134;2023-11-22T13:17:03;78702.28;;;-148.04;63.87
5814;BME280;2933;52.302;8.134;2023-11-22T13:22:07;78724.16;;;-148.04;63.51
5814;BME280;2933;52.302;8.134;2023-11-22T13:27:09;78710.22;;;-148.04;62.40
5814;BME280;2933;52.302;8.134;2023-11-22T13:32:12;78700.28;;;-148.04;62.06
5814;BME280;2933;52.302;8.134;2023-11-22T13:37:13;78720.19;;;-148.04;60.85
5814;BME280;2933;52.302;8.134;2023-11-22T13:42:16;78724.16;;;-148.04;60.74
5814;BME280;2933;52.302;8.134;2023-11-22T13:47:19;78746.03;;;-148.04;57.89
5814;BME280;2933;52.302;8.134;2023-11-22T13:52:21;78742.06;;;-148.04;59.16
5814;BME280;2933;52.302;8.134;2023-11-22T13:57:22;78754.00;;;-148.04;58.30
5814;BME280;2933;52.302;8.134;2023-11-22T14:02:26;78769.91;;;-148.04;60.48
5814;BME280;2933;52.302;8.134;2023-11-22T14:07:27;78752.00;;;-148.04;61.77
5814;BME280;2933;52.302;8.134;2023-11-22T14:12:29;78746.03;;;-148.04;59.92
5814;BME280;2933;52.302;8.134;2023-11-22T14:17:32;78746.03;;;-148.04;61.30
5814;BME280;2933;52.302;8.134;2023-11-22T14:22:35;78746.03;;;-148.04;62.64
5814;BME280;2933;52.302;8.134;2023-11-22T14:27:37;78752.00;;;-148.04;62.13
5814;BME280;2933;52.302;8.134;2023-11-22T14:32:40;78754.00;;;-148.04;63.45
5814;BME280;2933;52.302;8.134;2023-11-22T14:37:42;78744.03;;;-148.04;60.01
5814;BME280;2933;52.302;8.134;2023-11-22T14:42:45;78746.03;;;-148.04;61.29
5814;BME280;2933;52.302;8.134;2023-11-22T14:47:50;78759.97;;;-148.04;62.82
5814;BME280;2933;52.302;8.134;2023-11-22T14:52:52;78754.00;;;-148.04;64.51
5814;BME280;2933;52.302;8.134;2023-11-22T14:57:54;78742.06;;;-148.04;64.34
5814;BME280;2933;52.302;8.134;2023-11-22T15:02:58;78759.97;;;-148.04;65.01
5814;BME280;2933;52.302;8.134;2023-11-22T15:08:00;78763.94;;;-148.04;67.29
5814;BME280;2933;52.302;8.134;2023-11-22T15:13:02;78777.84;;;-148.04;70.55
5814;BME280;2933;52.302;8.134;2023-11-22T15:18:05;78765.91;;;-148.04;70.75
5814;BME280;2933;52.302;8.134;2023-11-22T15:23:07;78755.97;;;-148.04;69.24
5814;BME280;2933;52.302;8.134;2023-11-22T15:28:08;78755.97;;;-148.04;72.67
5814;BME280;2933;52.302;8.134;2023-11-22T15:33:11;78742.06;;;-148.04;72.47
5814;BME280;2933;52.302;8.134;2023-11-22T15:38:13;78738.06;;;-148.04;73.92
5814;BME280;2933;52.302;8.134;2023-11-22T15:43:15;78748.03;;;-148.04;73.42
5814;BME280;2933;52.302;8.134;2023-11-22T15:48:18;78744.03;;;-148.04;74.36
5814;BME280;2933;52.302;8.134;2023-11-22T15:53:19;78742.06;;;-148.04;74.45
5814;BME280;2933;52.302;8.134;2023-11-22T15:58:21;78742.06;;;-148.04;74.94
5814;BME280;2933;52.302;8.134;2023-11-22T16:03:24;78710.22;;;-148.04;74.95
5814;BME280;2933;52.302;8.134;2023-11-22T16:08:25;78702.28;;;-148.04;76.71
5814;BME280;2933;52.302;8.134;2023-11-22T16:13:27;78710.22;;;-148.04;77.01
5814;BME280;2933;52.302;8.134;2023-11-22T16:18:30;78708.25;;;-148.04;77.25
5814;BME280;2933;52.302;8.134;2023-11-22T16:23:33;78710.22;;;-148.04;75.83
5814;BME280;2933;52.302;8.134;2023-11-22T16:28:35;78712.22;;;-148.04;78.25
5814;BME280;2933;52.302;8.134;2023-11-22T16:33:38;78704.25;;;-148.04;77.83
5814;BME280;2933;52.302;8.134;2023-11-22T16:38:40;78698.28;;;-148.04;78.68
5814;BME280;2933;52.302;8.134;2023-11-22T16:43:41;78690.34;;;-148.04;77.34
5814;BME280;2933;52.302;8.134;2023-11-22T16:48:44;78690.34;;;-148.04;77.18
5814;BME280;2933;52.302;8.134;2023-11-22T16:53:47;78690.34;;;-148.04;78.29
5814;BME280;2933;52.302;8.134;2023-11-22T16:58:48;78686.38;;;-148.04;76.94
5814;BME280;2933;52.302;8.134;2023-11-22T17:03:51;78674.44;;;-148.04;76.30
5814;BME280;2933;52.302;8.134;2023-11-22T17:08:53;78664.47;;;-148.04;74.14
5814;BME280;2933;52.302;8.134;2023-11-22T17:13:55;78680.41;;;-148.04;72.72
5814;BME280;2933;52.302;8.134;2023-11-22T17:18:57;78652.53;;;-148.04;73.90
5814;BME280;2933;52.302;8.134;2023-11-22T17:23:59;78658.50;;;-148.04;72.26
5814;BME280;2933;52.302;8.134;2023-11-22T17:29:02;78652.53;;;-148.04;72.14
5814;BME280;2933;52.302;8.134;2023-11-22T17:34:05;78636.63;;;-148.04;72.54
5814;BME280;2933;52.302;8.134;2023-11-22T17:39:06;78634.66;;;-148.04;74.45
5814;BME280;2933;52.302;8.134;2023-11-22T17:44:09;78628.69;;;-148.04;74.91
5814;BME280;2933;52.302;8.134;2023-11-22T17:49:12;78624.69;;;-148.04;75.73
5814;BME280;2933;52.302;8.134;2023-11-22T17:54:13;78632.66;;;-148.04;76.02
5814;BME280;2933;52.302;8.134;2023-11-22T17:59:15;78614.75;;;-148.04;76.22
5814;BME280;2933;52.302;8.134;2023-11-22T18:04:19;78598.84;;;-148.04;75.90
5814;BME280;2933;52.302;8.134;2023-11-22T18:09:20;78596.84;;;-148.04;74.27
5814;BME280;2933;52.302;8.134;2023-11-22T18:14:23;78578.97;;;-148.04;73.30
5814;BME280;2933;52.302;8.134;2023-11-22T18:19:27;78555.09;;;-148.04;75.05
5814;BME280;2933;52.302;8.134;2023-11-22T18:24:29;78557.06;;;-148.04;73.00
5814;BME280;2933;52.302;8.134;2023-11-22T18:29:31;78555.09;;;-148.04;74.49
5814;BME280;2933;52.302;8.134;2023-11-22T18:34:34;78529.22;;;-148.04;73.10
5814;BME280;2933;52.302;8.134;2023-11-22T18:39:39;78529.22;;;-148.04;74.98
5814;BME280;2933;52.302;8.134;2023-11-22T18:44:40;78521.28;;;-148.04;75.05
5814;BME280;2933;52.302;8.134;2023-11-22T18:49:43;78533.22;;;-148.04;75.22
5814;BME280;2933;52.302;8.134;2023-11-22T18:54:45;78537.19;;;-148.04;75.38
5814;BME280;2933;52.302;8.134;2023-11-22T18:59:47;78535.19;;;-148.04;75.80
5814;BME280;2933;52.302;8.134;2023-11-22T19:04:51;78509.34;;;-148.04;75.88
5814;BME280;2933;52.302;8.134;2023-11-22T19:09:53;78511.34;;;-148.04;75.42
5814;BME280;2933;52.302;8.134;2023-11-22T19:14:56;78497.41;;;-148.04;77.12
5814;BME280;2933;52.302;8.134;2023-11-22T19:20:01;78489.44;;;-148.04;76.77
5814;BME280;2933;52.302;8.134;2023-11-22T19:25:02;78465.59;;;-148.04;76.75
5814;BME280;2933;52.302;8.134;2023-11-22T19:30:06;78465.59;;;-148.04;76.58
5814;BME280;2933;52.302;8.134;2023-11-22T19:35:10;78477.53;;;-148.04;76.84
5814;BME280;2933;52.302;8.134;2023-11-22T19:40:11;78451.66;;;-148.04;77.85
5814;BME280;2933;52.302;8.134;2023-11-22T19:45:13;78455.63;;;-148.04;77.22
5814;BME280;2933;52.302;8.134;2023-11-22T19:50:16;78437.75;;;-148.04;76.82
5814;BME280;2933;52.302;8.134;2023-11-22T19:55:20;78429.78;;;-148.04;75.69
5814;BME280;2933;52.302;8.134;2023-11-22T20:00:22;78419.84;;;-148.04;76.58
5814;BME280;2933;52.302;8.134;2023-11-22T20:05:24;78409.91;;;-148.04;76.14
5814;BME280;2933;52.302;8.134;2023-11-22T20:10:26;78415.88;;;-148.04;77.39
5814;BME280;2933;52.302;8.134;2023-11-22T20:15:28;78423.81;;;-148.04;78.29
5814;BME280;2933;52.302;8.134;2023-11-22T20:20:31;78411.88;;;-148.04;79.20
5814;BME280;2933;52.302;8.134;2023-11-22T20:25:32;78411.88;;;-148.04;79.88
5814;BME280;2933;52.302;8.134;2023-11-22T20:30:34;78390.00;;;-148.04;79.63
5814;BME280;2933;52.302;8.134;2023-11-22T20:35:37;78394.00;;;-148.04;81.14
5814;BME280;2933;52.302;8.134;2023-11-22T20:40:38;78376.09;;;-148.04;80.48
5814;BME280;2933;52.302;8.134;2023-11-22T20:45:40;78374.09;;;-148.04;80.76
5814;BME280;2933;52.302;8.134;2023-11-22T20:50:43;78380.06;;;-148.04;81.35
5814;BME280;2933;52.302;8.134;2023-11-22T20:55:45;78376.09;;;-148.04;82.21
5814;BME280;2933;52.302;8.134;2023-11-22T21:00:46;78366.13;;;-148.04;83.23
5814;BME280;2933;52.302;8.134;2023-11-22T21:05:49;78362.16;;;-148.04;83.03
5814;BME280;2933;52.302;8.134;2023-11-22T21:10:51;78330.34;;;-148.04;84.28
5814;BME280;2933;52.302;8.134;2023-11-22T21:15:52;78330.34;;;-148.04;84.37
5814;BME280;2933;52.302;8.134;2023-11-22T21:20:56;78308.47;;;-148.04;84.58
5814;BME280;2933;52.302;8.134;2023-11-22T21:25:58;78302.50;;;-148.04;85.62
5814;BME280;2933;52.302;8.134;2023-11-22T21:31:00;78302.50;;;-148.04;86.76
5814;BME280;2933;52.302;8.134;2023-11-22T21:36:04;78284.59;;;-148.04;87.50
5814;BME280;2933;52.302;8.134;2023-11-22T21:41:06;78278.63;;;-148.04;88.01
5814;BME280;2933;52.302;8.134;2023-11-22T21:46:14;78280.63;;;-148.04;89.32
5814;BME280;2933;52.302;8.134;2023-11-22T21:51:18;78256.75;;;-148.04;90.62
5814;BME280;2933;52.302;8.134;2023-11-22T21:56:19;78246.81;;;-148.04;94.07
5814;BME280;2933;52.302;8.134;2023-11-22T22:01:21;78236.88;;;-148.04;96.64
5814;BME280;2933;52.302;8.134;2023-11-22T22:06:24;78244.81;;;-148.04;98.17
5814;BME280;2933;52.302;8.134;2023-11-22T22:11:26;78246.81;;;-148.04;99.74
5814;BME280;2933;52.302;8.134;2023-11-22T22:16:27;78240.84;;;-148.04;100.00
5814;BME280;2933;52.302;8.134;2023-11-22T22:21:30;78228.91;;;-148.04;100.00
5814;BME280;2933;52.302;8.134;2023-11-22T22:26:32;78240.84;;;-148.04;100.00
5814;BME280;2933;52.302;8.134;2023-11-22T22:31:37;78228.91;;;-148.04;100.00
5814;BME280;2933;52.302;8.134;2023-11-22T22:36:40;78228.91;;;-148.04;100.00
5814;BME280;2933;52.302;8.134;2023-11-22T22:41:41;78209.03;;;-148.04;100.00
5814;BME280;2933;52.302;8.134;2023-11-22T22:46:43;78199.09;;;-148.04;100.00
5814;BME280;2933;52.302;8.134;2023-11-22T22:51:47;78183.16;;;-148.04;100.00
5814;BME280;2933;52.302;8.134;2023-11-22T22:56:49;78185.16;;;-148.04;100.00
5814;BME280;2933;52.302;8.134;2023-11-22T23:01:50;78179.19;;;-148.04;100.00
5814;BME280;2933;52.302;8.134;2023-11-22T23:06:54;78165.28;;;-148.04;100.00
5814;BME280;2933;52.302;8.134;2023-11-22T23:11:56;78167.25;;;-148.04;100.00
5814;BME280;2933;52.302;8.134;2023-11-22T23:16:57;78155.34;;;-148.04;100.00
5814;BME280;2933;52.302;8.134;2023-11-22T23:22:01;78141.41;;;-148.04;100.00
5814;BME280;2933;52.302;8.134;2023-11-22T23:27:06;78141.41;;;-148.04;100.00
5814;BME280;2933;52.302;8.134;2023-11-22T23:32:08;78139.41;;;-148.04;100.00
5814;BME280;2933;52.302;8.134;2023-11-22T23:37:12;78117.53;;;-148.04;100.00
5814;BME280;2933;52.302;8.134;2023-11-22T23:42:13;78115.56;;;-148.04;100.00
5814;BME280;2933;52.302;8.134;2023-11-22T23:47:15;78119.53;;;-148.04;100.00
5814;BME280;2933;52.302;8.134;2023-11-22T23:52:20;78115.56;;;-148.04;100.00
5814;BME280;2933;52.302;8.134;2023-11-22T23:57:21;78103.63;;;-148.04;100.00
